sensor_id;sensor_type;location;lat;lon;timestamp;P1;durP1;ratioP1;P2;durP2;ratioP2
45905;SDS011;31619;49.008;12.106;2022-09-09T00:04:28;3.08;;;2.88;;
45905;SDS011;31619;49.008;12.106;2022-09-09T00:07:07;3.40;;;3.03;;
45905;SDS011;31619;49.008;12.106;2022-09-09T00:09:48;3.70;;;3.40;;
45905;SDS011;31619;49.008;12.106;2022-09-09T00:15:05;4.20;;;3.90;;
45905;SDS011;31619;49.008;12.106;2022-09-09T00:17:56;4.65;;;4.25;;
45905;SDS011;31619;49.008;12.106;2022-09-09T00:23:08;3.67;;;3.47;;
45905;SDS011;31619;49.008;12.106;2022-09-09T00:28:52;4.90;;;4.60;;
45905;SDS011;31619;49.008;12.106;2022-09-09T00:31:32;4.93;;;4.43;;
45905;SDS011;31619;49.008;12.106;2022-09-09T00:34:00;5.18;;;4.78;;
45905;SDS011;31619;49.008;12.106;2022-09-09T00:36:33;5.03;;;4.63;;
45905;SDS011;31619;49.008;12.106;2022-09-09T00:39:01;6.00;;;5.35;;
45905;SDS011;31619;49.008;12.106;2022-09-09T00:44:34;6.50;;;5.80;;
45905;SDS011;31619;49.008;12.106;2022-09-09T00:55:16;6.75;;;5.20;;
45905;SDS011;31619;49.008;12.106;2022-09-09T00:57:52;7.03;;;6.53;;
45905;SDS011;31619;49.008;12.106;2022-09-09T01:00:20;7.78;;;7.07;;
45905;SDS011;31619;49.008;12.106;2022-09-09T01:03:10;7.97;;;7.28;;
45905;SDS011;31619;49.008;12.106;2022-09-09T01:08:39;7.18;;;6.68;;
45905;SDS011;31619;49.008;12.106;2022-09-09T01:11:24;8.20;;;7.55;;
45905;SDS011;31619;49.008;12.106;2022-09-09T01:14:10;8.35;;;7.60;;
45905;SDS011;31619;49.008;12.106;2022-09-09T01:16:50;8.50;;;7.60;;
45905;SDS011;31619;49.008;12.106;2022-09-09T01:19:45;8.70;;;7.97;;
45905;SDS011;31619;49.008;12.106;2022-09-09T01:22:09;8.43;;;7.70;;
45905;SDS011;31619;49.008;12.106;2022-09-09T01:24:50;8.35;;;7.65;;
45905;SDS011;31619;49.008;12.106;2022-09-09T01:27:27;10.50;;;7.25;;
45905;SDS011;31619;49.008;12.106;2022-09-09T01:29:53;8.02;;;7.43;;
45905;SDS011;31619;49.008;12.106;2022-09-09T01:35:06;8.43;;;7.82;;
45905;SDS011;31619;49.008;12.106;2022-09-09T01:37:35;9.13;;;8.32;;
45905;SDS011;31619;49.008;12.106;2022-09-09T01:40:01;9.48;;;8.68;;
45905;SDS011;31619;49.008;12.106;2022-09-09T01:42:27;9.13;;;7.70;;
45905;SDS011;31619;49.008;12.106;2022-09-09T01:44:52;8.70;;;8.00;;
45905;SDS011;31619;49.008;12.106;2022-09-09T01:47:19;8.65;;;7.95;;
45905;SDS011;31619;49.008;12.106;2022-09-09T01:49:45;8.63;;;7.93;;
45905;SDS011;31619;49.008;12.106;2022-09-09T01:52:10;8.45;;;7.72;;
45905;SDS011;31619;49.008;12.106;2022-09-09T01:54:36;8.25;;;7.47;;
45905;SDS011;31619;49.008;12.106;2022-09-09T01:57:22;7.50;;;6.90;;
45905;SDS011;31619;49.008;12.106;2022-09-09T02:02:46;7.18;;;6.57;;
45905;SDS011;31619;49.008;12.106;2022-09-09T02:05:30;7.63;;;6.97;;
45905;SDS011;31619;49.008;12.106;2022-09-09T02:08:09;7.88;;;7.28;;
45905;SDS011;31619;49.008;12.106;2022-09-09T02:13:25;7.93;;;7.32;;
45905;SDS011;31619;49.008;12.106;2022-09-09T02:16:07;8.07;;;7.45;;
45905;SDS011;31619;49.008;12.106;2022-09-09T02:18:38;7.93;;;7.22;;
45905;SDS011;31619;49.008;12.106;2022-09-09T02:21:26;7.63;;;7.03;;
45905;SDS011;31619;49.008;12.106;2022-09-09T02:23:56;7.90;;;7.18;;
45905;SDS011;31619;49.008;12.106;2022-09-09T02:26:25;7.63;;;6.93;;
45905;SDS011;31619;49.008;12.106;2022-09-09T02:28:52;8.75;;;7.85;;
45905;SDS011;31619;49.008;12.106;2022-09-09T02:31:21;8.75;;;7.95;;
45905;SDS011;31619;49.008;12.106;2022-09-09T02:33:54;8.55;;;7.82;;
45905;SDS011;31619;49.008;12.106;2022-09-09T02:36:24;9.77;;;8.73;;
45905;SDS011;31619;49.008;12.106;2022-09-09T02:38:54;8.63;;;7.93;;
45905;SDS011;31619;49.008;12.106;2022-09-09T02:41:22;9.13;;;8.38;;
45905;SDS011;31619;49.008;12.106;2022-09-09T02:43:52;8.52;;;7.82;;
45905;SDS011;31619;49.008;12.106;2022-09-09T02:49:11;8.65;;;7.63;;
45905;SDS011;31619;49.008;12.106;2022-09-09T02:52:05;9.25;;;7.70;;
45905;SDS011;31619;49.008;12.106;2022-09-09T02:54:41;8.70;;;7.93;;
45905;SDS011;31619;49.008;12.106;2022-09-09T02:57:17;7.65;;;6.95;;
45905;SDS011;31619;49.008;12.106;2022-09-09T02:59:48;7.65;;;7.00;;
45905;SDS011;31619;49.008;12.106;2022-09-09T03:02:17;8.00;;;6.63;;
45905;SDS011;31619;49.008;12.106;2022-09-09T03:04:43;7.07;;;6.50;;
45905;SDS011;31619;49.008;12.106;2022-09-09T03:07:09;8.10;;;6.72;;
45905;SDS011;31619;49.008;12.106;2022-09-09T03:09:37;7.28;;;6.78;;
45905;SDS011;31619;49.008;12.106;2022-09-09T03:12:02;7.97;;;7.28;;
45905;SDS011;31619;49.008;12.106;2022-09-09T03:14:32;7.63;;;6.82;;
45905;SDS011;31619;49.008;12.106;2022-09-09T03:16:57;7.10;;;6.53;;
45905;SDS011;31619;49.008;12.106;2022-09-09T03:19:26;6.95;;;6.45;;
45905;SDS011;31619;49.008;12.106;2022-09-09T03:21:52;7.03;;;6.50;;
45905;SDS011;31619;49.008;12.106;2022-09-09T03:24:18;7.53;;;6.93;;
45905;SDS011;31619;49.008;12.106;2022-09-09T03:26:44;7.07;;;6.38;;
45905;SDS011;31619;49.008;12.106;2022-09-09T03:29:11;7.03;;;6.53;;
45905;SDS011;31619;49.008;12.106;2022-09-09T03:31:37;8.27;;;7.50;;
45905;SDS011;31619;49.008;12.106;2022-09-09T03:34:04;8.45;;;7.65;;
45905;SDS011;31619;49.008;12.106;2022-09-09T03:36:30;8.80;;;7.70;;
45905;SDS011;31619;49.008;12.106;2022-09-09T03:38:56;8.50;;;7.78;;
45905;SDS011;31619;49.008;12.106;2022-09-09T03:41:22;9.95;;;9.07;;
45905;SDS011;31619;49.008;12.106;2022-09-09T03:43:49;9.02;;;8.18;;
45905;SDS011;31619;49.008;12.106;2022-09-09T03:46:16;9.23;;;8.35;;
45905;SDS011;31619;49.008;12.106;2022-09-09T03:48:42;8.95;;;8.15;;
45905;SDS011;31619;49.008;12.106;2022-09-09T03:51:08;8.75;;;7.78;;
45905;SDS011;31619;49.008;12.106;2022-09-09T03:53:35;9.70;;;8.70;;
45905;SDS011;31619;49.008;12.106;2022-09-09T03:56:03;9.55;;;8.63;;
45905;SDS011;31619;49.008;12.106;2022-09-09T03:58:32;9.05;;;8.32;;
45905;SDS011;31619;49.008;12.106;2022-09-09T04:00:59;9.88;;;8.95;;
45905;SDS011;31619;49.008;12.106;2022-09-09T04:03:27;9.70;;;8.70;;
45905;SDS011;31619;49.008;12.106;2022-09-09T04:05:54;9.63;;;8.73;;
45905;SDS011;31619;49.008;12.106;2022-09-09T04:08:21;8.05;;;7.35;;
45905;SDS011;31619;49.008;12.106;2022-09-09T04:10:48;7.40;;;6.90;;
45905;SDS011;31619;49.008;12.106;2022-09-09T04:13:15;9.00;;;8.20;;
45905;SDS011;31619;49.008;12.106;2022-09-09T04:15:42;8.88;;;8.18;;
45905;SDS011;31619;49.008;12.106;2022-09-09T04:18:10;9.43;;;8.55;;
45905;SDS011;31619;49.008;12.106;2022-09-09T04:20:36;9.25;;;8.38;;
45905;SDS011;31619;49.008;12.106;2022-09-09T04:23:02;8.48;;;7.88;;
45905;SDS011;31619;49.008;12.106;2022-09-09T04:25:29;9.35;;;8.45;;
45905;SDS011;31619;49.008;12.106;2022-09-09T04:27:55;8.63;;;7.93;;
45905;SDS011;31619;49.008;12.106;2022-09-09T04:30:21;9.95;;;9.10;;
45905;SDS011;31619;49.008;12.106;2022-09-09T04:32:48;9.65;;;8.80;;
45905;SDS011;31619;49.008;12.106;2022-09-09T04:35:14;8.73;;;7.93;;
45905;SDS011;31619;49.008;12.106;2022-09-09T04:37:40;9.57;;;8.77;;
45905;SDS011;31619;49.008;12.106;2022-09-09T04:40:06;8.90;;;8.15;;
45905;SDS011;31619;49.008;12.106;2022-09-09T04:42:35;9.55;;;8.75;;
45905;SDS011;31619;49.008;12.106;2022-09-09T04:45:01;10.13;;;9.05;;
45905;SDS011;31619;49.008;12.106;2022-09-09T04:47:28;9.93;;;9.10;;
45905;SDS011;31619;49.008;12.106;2022-09-09T04:49:53;10.23;;;9.38;;
45905;SDS011;31619;49.008;12.106;2022-09-09T04:52:19;11.07;;;10.05;;
45905;SDS011;31619;49.008;12.106;2022-09-09T04:54:45;11.07;;;10.02;;
45905;SDS011;31619;49.008;12.106;2022-09-09T04:57:11;9.85;;;9.10;;
45905;SDS011;31619;49.008;12.106;2022-09-09T04:59:37;9.52;;;8.73;;
45905;SDS011;31619;49.008;12.106;2022-09-09T05:02:04;10.98;;;10.02;;
45905;SDS011;31619;49.008;12.106;2022-09-09T05:04:30;9.48;;;8.77;;
45905;SDS011;31619;49.008;12.106;2022-09-09T05:06:56;8.75;;;8.05;;
45905;SDS011;31619;49.008;12.106;2022-09-09T05:09:22;9.23;;;8.52;;
45905;SDS011;31619;49.008;12.106;2022-09-09T05:11:47;8.88;;;7.90;;
45905;SDS011;31619;49.008;12.106;2022-09-09T05:14:13;7.93;;;7.32;;
45905;SDS011;31619;49.008;12.106;2022-09-09T05:16:40;7.45;;;6.85;;
45905;SDS011;31619;49.008;12.106;2022-09-09T05:19:05;7.35;;;6.80;;
45905;SDS011;31619;49.008;12.106;2022-09-09T05:21:33;7.15;;;6.65;;
45905;SDS011;31619;49.008;12.106;2022-09-09T05:23:59;7.85;;;7.25;;
45905;SDS011;31619;49.008;12.106;2022-09-09T05:26:27;6.75;;;6.25;;
45905;SDS011;31619;49.008;12.106;2022-09-09T05:28:54;7.55;;;6.60;;
45905;SDS011;31619;49.008;12.106;2022-09-09T05:31:20;6.93;;;6.43;;
45905;SDS011;31619;49.008;12.106;2022-09-09T05:33:46;9.82;;;7.25;;
45905;SDS011;31619;49.008;12.106;2022-09-09T05:36:15;8.40;;;7.60;;
45905;SDS011;31619;49.008;12.106;2022-09-09T05:38:42;8.05;;;6.53;;
45905;SDS011;31619;49.008;12.106;2022-09-09T05:41:08;10.13;;;7.13;;
45905;SDS011;31619;49.008;12.106;2022-09-09T05:43:36;6.97;;;6.38;;
45905;SDS011;31619;49.008;12.106;2022-09-09T05:46:09;7.38;;;6.78;;
45905;SDS011;31619;49.008;12.106;2022-09-09T05:48:36;6.72;;;6.22;;
45905;SDS011;31619;49.008;12.106;2022-09-09T05:51:04;7.45;;;6.70;;
45905;SDS011;31619;49.008;12.106;2022-09-09T05:53:32;7.40;;;6.70;;
45905;SDS011;31619;49.008;12.106;2022-09-09T05:55:59;7.32;;;6.55;;
45905;SDS011;31619;49.008;12.106;2022-09-09T05:58:33;7.07;;;6.38;;
45905;SDS011;31619;49.008;12.106;2022-09-09T06:01:00;6.57;;;6.03;;
45905;SDS011;31619;49.008;12.106;2022-09-09T06:03:39;6.90;;;6.30;;
45905;SDS011;31619;49.008;12.106;2022-09-09T06:06:10;6.55;;;6.05;;
45905;SDS011;31619;49.008;12.106;2022-09-09T06:08:38;7.28;;;6.68;;
45905;SDS011;31619;49.008;12.106;2022-09-09T06:11:07;7.40;;;6.70;;
45905;SDS011;31619;49.008;12.106;2022-09-09T06:13:43;6.13;;;5.72;;
45905;SDS011;31619;49.008;12.106;2022-09-09T06:16:09;7.60;;;6.78;;
45905;SDS011;31619;49.008;12.106;2022-09-09T06:18:36;6.97;;;6.43;;
45905;SDS011;31619;49.008;12.106;2022-09-09T06:21:03;7.20;;;6.57;;
45905;SDS011;31619;49.008;12.106;2022-09-09T06:23:31;6.72;;;6.22;;
45905;SDS011;31619;49.008;12.106;2022-09-09T06:26:01;7.60;;;6.90;;
45905;SDS011;31619;49.008;12.106;2022-09-09T06:28:32;7.63;;;7.00;;
